Pauma Valley, CA (92061)

6:10 AM PDT en Agosto 25, 2016 (GMT -0700)
Pauma Heights | | Change Station

Alt 1565 ft 33.28 °N, 117.02 °W | Updated 10 seconds ago

Scattered Clouds
Nubes dispersas
58.9 ° F
Sensación térmica 58.9 ° F
N
0.0
Viento Variable Viento desde Norte
Gusts 1.0 mph

Hoy
Alta -- | Baja -- ° F
--% Posibilidad de precipitaciones
Ayer
Alta -- | Baja -- ° F
Precip. -- pul
Presión 29.97 pul
Visibilidad 7.0 Millas
Nubes Nubes dispersas 200 ft
Punto de rocío 57 ° F
Humedad 94%
Precipitaciones 0.00 pul
Espesor de la nieve No disponible.
6:17 AM 7:21 PM
Cuarto menguante, 46% visible
METAR KF70 251255Z AUTO 14004KT 7SM SCT002 15/13 A2997 RMK AO1
Presión 29.97 pul
Visibilidad 7.0 Millas
Nubes Nubes dispersas 200 ft
Punto de rocío 57 ° F
Humedad 94%
Precipitaciones 0.00 pul
Espesor de la nieve No disponible.
6:17 AM 7:21 PM
Cuarto menguante, 46% visible
METAR KF70 251255Z AUTO 14004KT 7SM SCT002 15/13 A2997 RMK AO1

10-Day Weather Forecast

Almanac

Astronomía

Aug. 25, 2016 Salida Puesta
Hora real
Crepúsculo civil
Crepúsculo náutico
Crepúsculo astronómico
Luna
Horas de luz
Horas de luz
Tomorrow will be .
, % of the Moon is Illuminated

Extremos de hoy

Máximos del estado Bajos del estado

Community

WunderPhotos

Upload Photos

1,934,837 ¡fotos cargadas!

WunderBlog® & News

Nearby

Calidad del aire

  Calidad del aire Índice AQ Contaminante
Not available.

Grosos de nieve

Estación Profundido Altura

Actividad de terremotos

Ciudad Distance Mag. Tiempo y dato
Magnitud mínima muestra es 2,5.

Temperaturas de aguas costeras

Lugar Temperatura

Stations

Estaciones meteorológicas cercanas

Ubicación de la estación Temp. Vientos helados Punto de rocío Humedad Viento Precip. Alt Actualizado Tipo
                   

Watches & Warnings

There are currently no watches in effect.